Time;durP1;ratioP1;P1;durP2;ratioP2;P2;SDS_P1;SDS_P2;PMS_P1;PMS_P2;Temp;Humidity;BMP_temperature;BMP_pressure;BME280_temperature;BME280_humidity;BME280_pressure;Samples;Min_cycle;Max_cycle;Signal;HPM_P1;HPM_P2
2023/09/25 00:01:43;;;;;;;0.10;0.10;;;15.70;66.00;;;;;;5048085;28;20052;-70
2023/09/25 00:04:09;;;;;;;0.10;0.10;;;15.70;66.00;;;;;;5048719;28;20030;-70
2023/09/25 00:06:35;;;;;;;1.20;0.60;;;15.70;65.90;;;;;;5033352;28;20079;-70
2023/09/25 00:09:01;;;;;;;0.28;0.20;;;15.70;65.90;;;;;;5033522;28;20553;-70
2023/09/25 00:11:27;;;;;;;0.38;0.30;;;15.70;65.90;;;;;;5031150;28;20033;-70
2023/09/25 00:13:53;;;;;;;0.40;0.30;;;15.70;65.70;;;;;;5032074;28;20038;-70
2023/09/25 00:16:19;;;;;;;0.80;0.30;;;15.70;65.70;;;;;;5033201;28;20064;-70
2023/09/25 00:18:46;;;;;;;0.10;0.10;;;15.70;65.70;;;;;;5031951;28;20076;-70
2023/09/25 00:21:12;;;;;;;0.45;0.40;;;15.70;65.40;;;;;;5032081;28;20041;-70
2023/09/25 00:23:38;;;;;;;0.35;0.20;;;15.70;65.40;;;;;;5033328;28;20466;-70
2023/09/25 00:26:06;;;;;;;0.13;0.13;;;15.70;65.50;;;;;;5047956;28;20128;-70
2023/09/25 00:28:32;;;;;;;0.70;0.47;;;15.70;65.10;;;;;;5032015;28;20386;-70
2023/09/25 00:30:59;;;;;;;0.20;0.20;;;15.70;64.80;;;;;;5030643;28;20037;-70
2023/09/25 00:33:26;;;;;;;0.70;0.30;;;15.70;64.30;;;;;;5031648;28;20072;-70
2023/09/25 00:38:36;;;;;;;0.22;0.15;;;15.70;64.80;;;;;;5033019;28;20041;-70
2023/09/25 00:41:02;;;;;;;0.20;0.20;;;15.70;64.80;;;;;;5031834;28;20041;-70
2023/09/25 00:43:28;;;;;;;1.00;0.43;;;15.70;65.20;;;;;;5032855;28;20429;-70
2023/09/25 00:45:55;;;;;;;0.70;0.40;;;15.70;65.30;;;;;;5047549;28;20072;-70
2023/09/25 00:48:42;;;;;;;0.10;0.10;;;15.70;65.30;;;;;;5031318;28;20494;-70
2023/09/25 00:51:09;;;;;;;;;;;15.70;65.00;;;;;;5031128;28;20045;-70
2023/09/25 00:53:36;;;;;;;0.10;0.10;;;15.70;64.90;;;;;;5031464;28;19925;-70
2023/09/25 00:56:02;;;;;;;0.10;0.10;;;15.70;64.60;;;;;;5030727;28;20552;-70
2023/09/25 00:58:28;;;;;;;;;;;15.70;64.80;;;;;;5031804;28;20065;-70
2023/09/25 01:00:54;;;;;;;1.15;0.28;;;15.70;64.60;;;;;;5030221;28;20446;-70
2023/09/25 01:03:21;;;;;;;0.10;0.10;;;15.70;64.20;;;;;;5031251;28;20083;-70
2023/09/25 01:05:47;;;;;;;;;;;15.70;64.40;;;;;;5031445;28;20449;-70
2023/09/25 01:08:13;;;;;;;0.70;0.65;;;15.70;63.80;;;;;;5032569;28;20012;-70
2023/09/25 01:10:41;;;;;;;0.20;0.20;;;15.70;64.30;;;;;;5031280;28;20040;-70
2023/09/25 01:13:09;;;;;;;0.10;0.10;;;15.70;64.30;;;;;;5031411;28;20389;-70
2023/09/25 01:15:36;;;;;;;0.80;0.20;;;15.70;64.10;;;;;;5014197;28;20061;-70
2023/09/25 01:18:03;;;;;;;;;;;15.70;64.20;;;;;;5047630;28;20084;-70
2023/09/25 01:20:29;;;;;;;0.10;0.10;;;15.80;64.00;;;;;;5029934;28;19958;-70
2023/09/25 01:22:55;;;;;;;;;;;15.80;63.80;;;;;;5031395;28;20060;-70
2023/09/25 01:25:23;;;;;;;1.00;0.65;;;15.80;63.70;;;;;;5031548;28;19917;-70
2023/09/25 01:27:49;;;;;;;0.25;0.10;;;15.80;63.70;;;;;;5030906;28;20049;-70
2023/09/25 01:30:17;;;;;;;;;;;15.80;63.50;;;;;;5030311;28;20387;-70
2023/09/25 01:32:45;;;;;;;0.20;0.20;;;15.80;63.30;;;;;;5030740;28;19917;-70
2023/09/25 01:35:30;;;;;;;0.20;0.20;;;15.80;63.40;;;;;;5030335;28;20064;-70
2023/09/25 01:37:59;;;;;;;1.17;0.30;;;15.80;63.50;;;;;;5030737;28;20037;-70
2023/09/25 01:40:26;;;;;;;0.25;0.20;;;15.80;63.40;;;;;;5029759;28;20096;-70
2023/09/25 01:42:53;;;;;;;0.10;0.10;;;15.80;63.50;;;;;;5031909;28;20176;-70
2023/09/25 01:45:19;;;;;;;0.20;0.20;;;15.80;63.30;;;;;;5030215;28;20037;-70
2023/09/25 01:47:51;;;;;;;0.47;0.30;;;15.80;63.50;;;;;;5030543;28;20033;-70
2023/09/25 01:50:36;;;;;;;0.10;0.10;;;15.80;63.50;;;;;;5029600;28;20025;-70
2023/09/25 01:53:03;;;;;;;0.10;0.10;;;15.80;63.40;;;;;;5047360;28;20037;-70
2023/09/25 01:55:35;;;;;;;0.43;0.30;;;15.80;63.40;;;;;;5046521;28;20518;-70
2023/09/25 01:58:02;;;;;;;0.10;0.10;;;15.80;63.40;;;;;;5030709;28;20095;-70
2023/09/25 02:00:28;;;;;;;1.08;0.60;;;15.80;63.10;;;;;;5030667;28;20072;-70
2023/09/25 02:02:54;;;;;;;0.40;0.40;;;15.80;63.30;;;;;;5031705;28;20088;-70
2023/09/25 02:05:21;;;;;;;0.20;0.20;;;15.80;64.00;;;;;;5031287;28;20041;-70
2023/09/25 02:07:47;;;;;;;0.40;0.20;;;15.80;63.10;;;;;;5030631;28;20394;-70
2023/09/25 02:10:13;;;;;;;0.30;0.30;;;15.80;63.00;;;;;;5030974;28;20029;-71
2023/09/25 02:12:39;;;;;;;0.20;0.20;;;15.80;62.90;;;;;;5031768;28;20100;-70
2023/09/25 02:15:08;;;;;;;0.45;0.30;;;15.80;62.80;;;;;;5047008;28;20037;-70
2023/09/25 02:17:34;;;;;;;0.25;0.25;;;15.80;62.60;;;;;;5031605;28;20040;-70
2023/09/25 02:20:13;;;;;;;0.10;0.10;;;15.80;62.60;;;;;;5031416;28;20045;-70
2023/09/25 02:22:40;;;;;;;0.57;0.30;;;15.90;62.70;;;;;;5030230;28;20490;-70
2023/09/25 02:25:08;;;;;;;0.57;0.30;;;15.80;62.60;;;;;;5030048;28;20025;-70
2023/09/25 02:27:35;;;;;;;2.30;1.30;;;15.80;61.70;;;;;;5032086;28;20025;-70
2023/09/25 02:30:01;;;;;;;0.47;0.30;;;15.80;62.40;;;;;;5031004;28;20041;-70
2023/09/25 02:32:27;;;;;;;1.27;0.55;;;15.90;62.50;;;;;;5034457;28;20091;-70
2023/09/25 02:34:53;;;;;;;0.20;0.20;;;15.80;62.10;;;;;;5034106;28;20041;-70
2023/09/25 02:37:19;;;;;;;0.13;0.13;;;15.90;62.60;;;;;;5050157;28;20079;-70
2023/09/25 02:39:45;;;;;;;0.10;0.10;;;15.80;62.10;;;;;;5035423;28;20033;-70
2023/09/25 02:42:11;;;;;;;0.20;0.20;;;15.80;62.10;;;;;;5033241;28;20038;-70
2023/09/25 02:44:37;;;;;;;0.98;0.55;;;15.80;62.20;;;;;;5035232;28;20038;-70
2023/09/25 02:47:03;;;;;;;0.17;0.13;;;15.80;62.10;;;;;;5049985;28;20041;-70
2023/09/25 02:49:29;;;;;;;0.38;0.30;;;15.80;62.10;;;;;;5050095;28;20042;-70
2023/09/25 02:51:55;;;;;;;2.47;1.42;;;15.80;62.00;;;;;;5033961;28;20068;-70
2023/09/25 02:54:21;;;;;;;;;;;15.80;62.20;;;;;;5034031;28;20037;-70
2023/09/25 02:56:48;;;;;;;0.35;0.30;;;15.80;61.60;;;;;;5034386;28;20423;-70
2023/09/25 02:59:13;;;;;;;;;;;15.80;62.40;;;;;;5034106;28;20038;-70
2023/09/25 03:01:40;;;;;;;0.45;0.38;;;15.80;62.30;;;;;;5033705;28;19990;-70
2023/09/25 03:04:06;;;;;;;0.52;0.30;;;15.80;62.30;;;;;;5034893;28;20494;-70
2023/09/25 03:06:32;;;;;;;0.10;0.10;;;15.80;62.20;;;;;;5034143;28;20041;-70
2023/09/25 03:08:58;;;;;;;0.52;0.30;;;15.80;62.10;;;;;;5034767;28;20111;-70
2023/09/25 03:11:24;;;;;;;0.40;0.30;;;15.80;62.10;;;;;;5033632;28;20037;-70
2023/09/25 03:13:50;;;;;;;0.45;0.40;;;15.80;62.10;;;;;;5016818;28;20045;-70
2023/09/25 03:16:17;;;;;;;0.43;0.32;;;15.80;61.90;;;;;;5033790;28;20071;-70
2023/09/25 03:18:43;;;;;;;0.10;0.10;;;15.90;61.90;;;;;;5034332;28;20485;-71
2023/09/25 03:21:29;;;;;;;;;;;15.90;62.90;;;;;;5033970;28;20056;-71
2023/09/25 03:23:55;;;;;;;0.75;0.50;;;15.90;62.00;;;;;;5033066;28;19917;-70
2023/09/25 03:26:21;;;;;;;0.47;0.30;;;15.90;62.20;;;;;;5032619;28;20555;-70
2023/09/25 03:28:49;;;;;;;0.13;0.13;;;15.90;62.10;;;;;;5034390;28;20045;-70
2023/09/25 03:31:15;;;;;;;1.55;0.55;;;15.90;62.10;;;;;;5048415;28;20046;-70
2023/09/25 03:33:43;;;;;;;3.53;1.13;;;15.90;62.30;;;;;;5034294;28;20034;-70
2023/09/25 03:36:11;;;;;;;0.20;0.10;;;15.90;62.30;;;;;;5048963;28;20033;-70
2023/09/25 03:38:37;;;;;;;0.50;0.40;;;15.90;62.30;;;;;;5034029;28;20040;-70
2023/09/25 03:41:04;;;;;;;0.95;0.63;;;15.90;62.40;;;;;;5048031;28;20072;-70
2023/09/25 03:43:30;;;;;;;0.50;0.50;;;15.90;62.10;;;;;;5049334;28;20040;-70
2023/09/25 03:45:57;;;;;;;0.68;0.30;;;15.90;62.10;;;;;;5033675;28;20045;-70
2023/09/25 03:48:22;;;;;;;0.55;0.43;;;15.90;61.50;;;;;;5034122;28;20038;-70
2023/09/25 03:50:49;;;;;;;0.30;0.30;;;16.00;62.20;;;;;;5031555;28;20060;-70
2023/09/25 03:53:16;;;;;;;0.15;0.15;;;16.00;62.10;;;;;;5032425;28;20034;-70
2023/09/25 03:55:41;;;;;;;;;;;16.00;62.00;;;;;;5032417;28;20029;-70
2023/09/25 03:58:08;;;;;;;0.60;0.60;;;16.00;62.00;;;;;;5015799;28;20370;-70
2023/09/25 04:00:34;;;;;;;1.00;0.70;;;16.00;61.90;;;;;;5031406;28;20048;-70
2023/09/25 04:03:00;;;;;;;;;;;16.00;62.10;;;;;;5034084;28;20083;-70
2023/09/25 04:05:27;;;;;;;1.00;0.40;;;16.00;62.10;;;;;;5031690;28;20173;-70
2023/09/25 04:07:53;;;;;;;0.20;0.20;;;16.00;61.90;;;;;;5033444;28;20046;-70
2023/09/25 04:10:19;;;;;;;0.38;0.38;;;16.00;62.00;;;;;;5032405;28;20095;-70
2023/09/25 04:12:45;;;;;;;0.73;0.50;;;16.00;62.00;;;;;;5032207;28;20037;-70
2023/09/25 04:15:14;;;;;;;;;;;16.00;62.00;;;;;;5032118;28;20379;-70
2023/09/25 04:17:41;;;;;;;0.55;0.40;;;16.00;61.90;;;;;;5032225;28;19917;-70
2023/09/25 04:23:00;;;;;;;0.32;0.20;;;16.00;61.60;;;;;;5032219;28;20046;-71
2023/09/25 04:25:27;;;;;;;0.82;0.30;;;16.10;61.90;;;;;;5047979;28;20075;-70
2023/09/25 04:27:55;;;;;;;0.20;0.20;;;16.10;61.90;;;;;;5048344;28;20095;-70
2023/09/25 04:30:23;;;;;;;1.55;0.43;;;16.10;61.90;;;;;;5030958;28;20029;-70
2023/09/25 04:32:53;;;;;;;0.30;0.30;;;16.10;61.90;;;;;;5032316;28;20053;-71
2023/09/25 04:35:20;;;;;;;0.38;0.20;;;16.10;62.00;;;;;;5047480;28;20033;-71
2023/09/25 04:37:46;;;;;;;0.10;0.10;;;16.10;62.00;;;;;;5031743;28;20029;-70
2023/09/25 04:40:22;;;;;;;;;;;16.10;61.20;;;;;;5032495;28;20030;-71
2023/09/25 04:43:07;;;;;;;0.32;0.20;;;16.10;61.20;;;;;;5033017;28;20282;-70
2023/09/25 04:45:33;;;;;;;2.22;0.93;;;16.10;61.60;;;;;;5031200;28;20037;-71
2023/09/25 04:47:59;;;;;;;0.20;0.20;;;16.20;61.70;;;;;;5032677;28;20422;-70
2023/09/25 04:50:25;;;;;;;0.30;0.20;;;16.10;61.50;;;;;;5031652;28;20952;-71
2023/09/25 04:52:52;;;;;;;0.20;0.20;;;16.10;61.50;;;;;;5014276;28;20030;-70
2023/09/25 04:55:18;;;;;;;0.25;0.20;;;16.10;60.90;;;;;;5032250;28;20044;-70
2023/09/25 04:57:46;;;;;;;2.50;0.50;;;16.20;61.40;;;;;;5048047;28;20030;-70
2023/09/25 05:02:45;;;;;;;0.73;0.52;;;16.20;61.40;;;;;;5047868;28;20029;-70
2023/09/25 05:05:12;;;;;;;1.10;0.60;;;16.20;61.00;;;;;;5030711;28;20025;-70
2023/09/25 05:07:41;;;;;;;0.93;0.52;;;16.20;61.20;;;;;;5031146;28;20033;-70
2023/09/25 05:10:27;;;;;;;0.50;0.30;;;16.20;61.20;;;;;;5046665;28;20413;-70
2023/09/25 05:12:55;;;;;;;0.25;0.25;;;16.30;61.40;;;;;;5048065;28;20041;-70
2023/09/25 05:15:22;;;;;;;1.55;1.05;;;16.20;61.30;;;;;;5030445;28;20029;-70
2023/09/25 05:17:48;;;;;;;0.32;0.25;;;16.20;60.80;;;;;;5031118;28;20443;-70
2023/09/25 05:20:18;;;;;;;0.85;0.40;;;16.20;61.30;;;;;;5029961;28;20050;-70
2023/09/25 05:22:48;;;;;;;0.25;0.25;;;16.20;61.40;;;;;;5047464;28;20033;-70
2023/09/25 05:25:15;;;;;;;0.93;0.70;;;16.20;61.60;;;;;;5030472;28;20032;-70
2023/09/25 05:28:00;;;;;;;0.75;0.25;;;16.30;61.80;;;;;;5047520;28;20116;-71
2023/09/25 05:30:26;;;;;;;0.63;0.40;;;16.30;62.20;;;;;;5029714;28;20394;-70
2023/09/25 05:32:52;;;;;;;0.47;0.40;;;16.20;62.40;;;;;;5032125;28;20042;-70
2023/09/25 05:35:19;;;;;;;0.73;0.40;;;16.20;63.10;;;;;;5031464;28;20390;-70
2023/09/25 05:37:47;;;;;;;0.77;0.63;;;16.20;63.90;;;;;;5030768;28;20557;-70
2023/09/25 05:40:15;;;;;;;1.02;0.68;;;16.10;64.80;;;;;;5029650;28;20048;-71
2023/09/25 05:42:43;;;;;;;0.50;0.50;;;16.10;65.40;;;;;;5030761;28;20025;-71
2023/09/25 05:45:11;;;;;;;1.02;0.65;;;16.00;65.80;;;;;;5046802;28;20029;-70
2023/09/25 05:47:37;;;;;;;1.17;0.75;;;16.00;66.10;;;;;;5031931;28;20436;-70
2023/09/25 05:50:08;;;;;;;0.77;0.77;;;16.00;66.50;;;;;;5046596;28;20065;-70
2023/09/25 05:52:35;;;;;;;1.38;0.75;;;16.00;66.60;;;;;;5031974;28;20029;-70
2023/09/25 05:55:04;;;;;;;0.68;0.40;;;16.00;66.80;;;;;;5031919;28;20038;-71
2023/09/25 05:57:31;;;;;;;0.30;0.30;;;16.00;67.30;;;;;;5030283;28;20030;-71
2023/09/25 05:59:59;;;;;;;0.40;0.20;;;16.00;67.60;;;;;;5047052;28;20120;-70
2023/09/25 06:02:27;;;;;;;0.17;0.17;;;16.00;67.40;;;;;;5030880;28;20061;-71
2023/09/25 06:04:54;;;;;;;0.65;0.38;;;15.90;68.00;;;;;;5032800;28;20083;-70
2023/09/25 06:07:21;;;;;;;0.88;0.80;;;15.90;68.10;;;;;;5035255;28;20333;-70
2023/09/25 06:09:47;;;;;;;0.32;0.20;;;16.00;68.40;;;;;;5036014;28;20044;-70
2023/09/25 06:12:14;;;;;;;0.75;0.35;;;16.00;68.40;;;;;;5033369;28;20088;-71
2023/09/25 06:14:41;;;;;;;0.20;0.20;;;16.00;68.30;;;;;;5034268;28;20049;-70
2023/09/25 06:17:09;;;;;;;;;;;16.00;68.10;;;;;;5035728;28;20290;-71
2023/09/25 06:19:36;;;;;;;0.95;0.60;;;16.10;68.10;;;;;;5035488;28;19936;-70
2023/09/25 06:22:03;;;;;;;0.30;0.30;;;16.10;67.70;;;;;;5033325;28;20040;-71
2023/09/25 06:24:29;;;;;;;0.50;0.30;;;16.10;67.00;;;;;;5035125;28;20037;-70
2023/09/25 06:26:55;;;;;;;0.10;0.10;;;16.20;67.60;;;;;;5017204;28;20498;-70
2023/09/25 06:29:21;;;;;;;0.32;0.22;;;16.20;67.40;;;;;;5034099;28;20124;-71
2023/09/25 06:31:48;;;;;;;0.38;0.30;;;16.30;67.30;;;;;;5034332;28;20037;-70
2023/09/25 06:34:15;;;;;;;0.82;0.40;;;16.30;67.10;;;;;;5035449;28;20049;-70
2023/09/25 06:36:41;;;;;;;0.65;0.47;;;16.30;66.80;;;;;;5034849;28;20107;-71
2023/09/25 06:39:09;;;;;;;0.55;0.55;;;16.40;66.70;;;;;;5050674;28;20037;-71
2023/09/25 06:41:37;;;;;;;0.43;0.28;;;16.40;66.40;;;;;;5034110;28;20117;-70
2023/09/25 06:44:05;;;;;;;0.80;0.45;;;16.50;66.10;;;;;;5033834;28;20025;-71
2023/09/25 06:46:32;;;;;;;0.65;0.57;;;16.50;65.80;;;;;;5034500;28;20556;-70
2023/09/25 06:49:00;;;;;;;0.22;0.20;;;16.60;65.20;;;;;;5033788;28;20039;-71
2023/09/25 06:51:27;;;;;;;1.20;0.40;;;16.60;65.00;;;;;;5032713;28;20141;-70
2023/09/25 06:53:54;;;;;;;0.60;0.38;;;16.70;64.40;;;;;;5034997;28;20060;-70
2023/09/25 06:56:20;;;;;;;0.32;0.30;;;16.70;64.20;;;;;;5033004;28;20072;-71
2023/09/25 06:58:46;;;;;;;0.17;0.17;;;16.70;63.80;;;;;;5034981;28;20042;-70
2023/09/25 07:01:12;;;;;;;0.52;0.32;;;16.80;63.90;;;;;;5049175;28;20038;-70
2023/09/25 07:03:38;;;;;;;;;;;16.80;63.90;;;;;;5035234;28;20518;-71
2023/09/25 07:06:04;;;;;;;0.80;0.40;;;16.90;63.60;;;;;;5032969;28;19952;-71
2023/09/25 07:08:30;;;;;;;;;;;16.90;62.70;;;;;;5035227;28;20042;-70
2023/09/25 07:11:00;;;;;;;3.20;1.60;;;16.90;63.20;;;;;;5032301;28;19955;-71
2023/09/25 07:13:27;;;;;;;1.08;0.40;;;16.90;62.90;;;;;;5033496;28;20037;-70
2023/09/25 07:16:20;;;;;;;0.52;0.52;;;17.00;62.90;;;;;;5048349;28;20026;-70
2023/09/25 07:18:47;;;;;;;0.10;0.10;;;16.90;62.60;;;;;;5034680;28;20034;-71
2023/09/25 07:21:15;;;;;;;0.35;0.35;;;16.90;62.60;;;;;;5033231;28;20422;-71
2023/09/25 07:23:41;;;;;;;0.73;0.60;;;17.00;62.80;;;;;;5034498;28;20430;-71
2023/09/25 07:26:09;;;;;;;0.25;0.25;;;16.90;62.80;;;;;;5032426;28;20065;-71
2023/09/25 07:28:36;;;;;;;0.17;0.17;;;16.90;62.50;;;;;;5032943;28;20394;-71
2023/09/25 07:31:02;;;;;;;2.17;1.48;;;17.00;62.20;;;;;;5031843;28;20045;-70
2023/09/25 07:33:30;;;;;;;0.22;0.20;;;17.00;62.50;;;;;;5016383;28;20395;-71
2023/09/25 07:35:57;;;;;;;0.10;0.10;;;17.00;62.40;;;;;;5032361;28;20503;-71
2023/09/25 07:38:24;;;;;;;0.30;0.25;;;17.00;62.30;;;;;;5049404;28;20048;-71
2023/09/25 07:40:51;;;;;;;0.85;0.50;;;17.00;62.40;;;;;;5031703;28;20506;-71
2023/09/25 07:43:19;;;;;;;2.88;0.50;;;17.00;61.70;;;;;;5032646;28;20509;-70
2023/09/25 07:46:05;;;;;;;1.02;0.43;;;17.10;62.40;;;;;;5048466;28;20072;-70
2023/09/25 07:48:31;;;;;;;0.43;0.30;;;17.10;62.30;;;;;;5034134;28;20095;-71
2023/09/25 07:50:58;;;;;;;0.32;0.32;;;17.10;62.20;;;;;;5032804;28;20433;-71
2023/09/25 07:53:25;;;;;;;0.28;0.20;;;17.10;61.50;;;;;;5015973;28;20040;-71
2023/09/25 07:55:51;;;;;;;0.10;0.10;;;17.10;61.40;;;;;;5033299;28;20038;-70
2023/09/25 07:58:18;;;;;;;0.10;0.10;;;17.20;62.00;;;;;;5033696;28;20069;-70
2023/09/25 08:00:47;;;;;;;0.35;0.28;;;17.20;61.50;;;;;;5013467;28;20052;-71
2023/09/25 08:03:17;;;;;;;1.40;0.55;;;17.20;61.80;;;;;;5032003;28;20091;-70
2023/09/25 08:06:05;;;;;;;0.88;0.45;;;17.20;61.90;;;;;;5032888;28;20037;-71
2023/09/25 08:08:51;;;;;;;12.57;1.02;;;17.20;61.90;;;;;;5032232;28;20376;-70
2023/09/25 08:11:18;;;;;;;0.20;0.20;;;17.20;61.40;;;;;;5031391;28;20041;-70
2023/09/25 08:13:45;;;;;;;0.10;0.10;;;17.20;61.30;;;;;;5032129;28;20095;-71
2023/09/25 08:16:11;;;;;;;;;;;17.30;61.70;;;;;;5033338;28;20478;-71
2023/09/25 08:18:37;;;;;;;0.60;0.60;;;17.30;61.80;;;;;;5033456;28;19921;-70
2023/09/25 08:21:04;;;;;;;0.57;0.40;;;17.30;61.20;;;;;;5014325;28;20048;-70
2023/09/25 08:23:30;;;;;;;0.45;0.40;;;17.30;61.40;;;;;;5032007;28;20033;-71
2023/09/25 08:25:56;;;;;;;1.42;0.50;;;17.30;61.30;;;;;;5031380;28;20068;-71
2023/09/25 08:28:23;;;;;;;0.60;0.47;;;17.40;61.30;;;;;;5033134;28;20378;-71
2023/09/25 08:30:50;;;;;;;0.20;0.20;;;17.50;61.40;;;;;;5031986;28;20445;-70
2023/09/25 08:33:16;;;;;;;0.80;0.30;;;17.50;61.10;;;;;;5033044;28;20454;-70
2023/09/25 08:35:43;;;;;;;;;;;17.50;61.20;;;;;;5033002;28;20033;-70
2023/09/25 08:38:09;;;;;;;0.80;0.65;;;17.60;60.60;;;;;;5032964;28;19924;-71
2023/09/25 08:40:38;;;;;;;0.30;0.30;;;17.50;60.90;;;;;;5030644;28;20092;-70
2023/09/25 08:43:05;;;;;;;0.38;0.38;;;17.50;61.30;;;;;;5031590;28;20033;-71
2023/09/25 08:45:33;;;;;;;1.40;0.47;;;17.50;61.50;;;;;;5014457;28;20037;-70
2023/09/25 08:47:59;;;;;;;0.40;0.40;;;17.50;61.70;;;;;;5031542;28;20202;-70
2023/09/25 08:50:25;;;;;;;;;;;17.50;61.80;;;;;;5014450;28;20103;-71
2023/09/25 08:52:51;;;;;;;0.43;0.40;;;17.60;61.80;;;;;;5031508;28;20290;-71
2023/09/25 08:55:17;;;;;;;0.40;0.40;;;17.60;61.40;;;;;;5030903;28;20035;-71
2023/09/25 08:57:44;;;;;;;0.35;0.20;;;17.60;61.50;;;;;;5014869;28;20029;-70
2023/09/25 09:00:14;;;;;;;0.17;0.17;;;17.60;61.20;;;;;;5030208;28;20117;-71
2023/09/25 09:02:41;;;;;;;0.22;0.22;;;17.60;60.90;;;;;;5032442;28;20033;-70
2023/09/25 09:05:11;;;;;;;0.20;0.20;;;17.70;60.90;;;;;;5014628;28;20029;-71
2023/09/25 09:07:39;;;;;;;1.38;0.75;;;17.70;61.00;;;;;;5014746;28;20029;-70
2023/09/25 09:10:07;;;;;;;0.73;0.40;;;17.70;61.20;;;;;;5014221;28;20026;-70
2023/09/25 09:12:52;;;;;;;0.55;0.30;;;17.70;60.70;;;;;;5032036;28;20041;-70
2023/09/25 09:15:38;;;;;;;1.23;0.70;;;17.70;60.90;;;;;;5030571;28;20437;-70
2023/09/25 09:18:25;;;;;;;0.22;0.20;;;17.80;60.90;;;;;;5031052;28;20029;-71
2023/09/25 09:20:51;;;;;;;1.20;0.40;;;17.90;60.70;;;;;;5029821;28;20057;-71
2023/09/25 09:23:18;;;;;;;0.60;0.30;;;17.90;60.40;;;;;;5031037;28;20053;-70
2023/09/25 09:25:57;;;;;;;0.47;0.25;;;17.90;60.70;;;;;;5031672;28;20041;-71
2023/09/25 09:28:25;;;;;;;0.30;0.30;;;17.90;60.70;;;;;;5014449;28;20449;-71
2023/09/25 09:30:51;;;;;;;0.85;0.43;;;17.80;60.70;;;;;;5013158;28;20041;-70
2023/09/25 09:33:18;;;;;;;0.30;0.22;;;17.80;61.00;;;;;;5031045;28;20044;-71
2023/09/25 09:35:44;;;;;;;0.45;0.40;;;17.80;61.20;;;;;;5030525;28;20041;-70
2023/09/25 09:38:11;;;;;;;0.25;0.20;;;17.80;61.30;;;;;;5030784;28;20367;-71
2023/09/25 09:40:37;;;;;;;1.08;0.43;;;17.90;61.30;;;;;;5029603;28;20041;-70
2023/09/25 09:43:06;;;;;;;0.38;0.20;;;17.90;61.40;;;;;;5030666;28;20064;-71
2023/09/25 09:45:33;;;;;;;1.60;0.45;;;18.00;61.00;;;;;;5030355;28;20057;-70
2023/09/25 09:48:00;;;;;;;0.52;0.22;;;18.10;61.00;;;;;;5014125;28;20068;-71
2023/09/25 09:50:49;;;;;;;0.17;0.17;;;18.20;60.80;;;;;;5030010;28;20073;-71
2023/09/25 09:53:17;;;;;;;0.55;0.47;;;18.30;60.40;;;;;;5014309;28;20037;-70
2023/09/25 09:55:45;;;;;;;0.52;0.40;;;18.30;60.10;;;;;;5031460;28;20037;-71
2023/09/25 09:58:12;;;;;;;0.20;0.20;;;18.50;59.90;;;;;;5030608;28;20053;-71
2023/09/25 10:00:39;;;;;;;0.55;0.30;;;18.60;59.40;;;;;;5029763;28;20240;-71
2023/09/25 10:03:08;;;;;;;0.55;0.20;;;18.80;58.90;;;;;;5030585;28;20498;-71
2023/09/25 10:05:44;;;;;;;1.55;0.75;;;18.80;58.30;;;;;;5030130;28;20421;-71
2023/09/25 10:08:11;;;;;;;;;;;18.80;58.30;;;;;;5031154;28;20033;-71
2023/09/25 10:10:41;;;;;;;0.10;0.10;;;18.90;58.60;;;;;;5013096;28;19921;-71
2023/09/25 10:13:26;;;;;;;0.30;0.20;;;18.90;58.40;;;;;;5030549;28;20041;-71
2023/09/25 10:16:15;;;;;;;1.40;0.77;;;19.00;58.20;;;;;;5031062;28;20036;-71
2023/09/25 10:18:42;;;;;;;0.20;0.20;;;19.10;57.80;;;;;;5031974;28;20034;-71
2023/09/25 10:21:27;;;;;;;0.45;0.40;;;19.40;57.70;;;;;;5030830;28;20041;-71
2023/09/25 10:23:56;;;;;;;0.80;0.65;;;19.70;56.60;;;;;;5031768;28;20069;-71
2023/09/25 10:26:26;;;;;;;0.30;0.20;;;19.90;55.90;;;;;;5013301;28;20044;-70
2023/09/25 10:29:14;;;;;;;0.20;0.20;;;20.00;55.50;;;;;;5014070;28;20654;-71
2023/09/25 10:32:06;;;;;;;0.98;0.55;;;19.90;55.90;;;;;;5012820;28;20045;-71
2023/09/25 10:34:32;;;;;;;0.52;0.40;;;20.10;55.30;;;;;;5030382;28;20037;-72
2023/09/25 10:37:16;;;;;;;0.75;0.52;;;20.30;54.90;;;;;;5031175;28;20420;-71
2023/09/25 10:39:43;;;;;;;0.20;0.20;;;20.30;54.10;;;;;;5013467;28;20038;-71
2023/09/25 10:42:09;;;;;;;0.65;0.35;;;20.40;54.50;;;;;;5029472;28;20037;-71
2023/09/25 10:44:36;;;;;;;0.65;0.30;;;20.50;54.40;;;;;;5030365;28;20414;-71
2023/09/25 10:47:21;;;;;;;1.45;0.40;;;20.40;53.80;;;;;;5013221;28;20041;-70
2023/09/25 10:49:49;;;;;;;0.20;0.20;;;20.10;54.40;;;;;;5030269;28;20037;-71
2023/09/25 10:52:16;;;;;;;0.25;0.25;;;20.00;54.80;;;;;;5031776;28;20462;-71
2023/09/25 10:54:42;;;;;;;0.13;0.13;;;20.00;55.20;;;;;;5033632;28;20026;-70
2023/09/25 10:57:08;;;;;;;0.28;0.28;;;19.90;55.10;;;;;;5034503;28;20083;-71
2023/09/25 10:59:34;;;;;;;0.15;0.15;;;19.80;55.60;;;;;;5033571;28;20049;-71
2023/09/25 11:02:00;;;;;;;0.20;0.20;;;19.80;56.20;;;;;;5032660;28;20462;-71
2023/09/25 11:04:26;;;;;;;0.63;0.30;;;19.80;56.10;;;;;;5034582;28;20041;-71
2023/09/25 11:06:52;;;;;;;0.57;0.35;;;19.70;56.10;;;;;;5032987;28;20038;-71
2023/09/25 11:09:18;;;;;;;;;;;19.70;56.10;;;;;;5033940;28;20042;-71
2023/09/25 11:11:46;;;;;;;0.40;0.40;;;19.70;56.20;;;;;;5032345;28;19943;-71
2023/09/25 11:14:12;;;;;;;1.70;0.70;;;19.60;55.80;;;;;;5033530;28;20112;-71
2023/09/25 11:16:39;;;;;;;0.20;0.20;;;19.60;56.80;;;;;;5016289;28;20062;-71
2023/09/25 11:19:24;;;;;;;0.20;0.20;;;19.60;56.40;;;;;;5033245;28;20053;-70
2023/09/25 11:21:50;;;;;;;0.20;0.20;;;19.50;56.80;;;;;;5033454;28;20057;-70
2023/09/25 11:24:17;;;;;;;;;;;19.50;56.90;;;;;;5035095;28;20033;-71
2023/09/25 11:26:44;;;;;;;0.30;0.30;;;19.40;56.70;;;;;;5033923;28;19967;-71
2023/09/25 11:29:11;;;;;;;0.40;0.25;;;19.30;57.30;;;;;;5034566;28;20394;-70
2023/09/25 11:31:39;;;;;;;0.30;0.30;;;19.10;57.70;;;;;;5031899;28;20115;-71
2023/09/25 11:34:24;;;;;;;0.40;0.30;;;19.10;58.00;;;;;;5033001;28;20038;-71
2023/09/25 11:36:50;;;;;;;0.25;0.25;;;19.10;57.70;;;;;;5033777;28;20072;-71
2023/09/25 11:39:17;;;;;;;0.10;0.10;;;19.00;58.40;;;;;;5034169;28;20081;-71
2023/09/25 11:42:01;;;;;;;0.10;0.10;;;19.00;58.60;;;;;;5033528;28;20037;-70
2023/09/25 11:44:27;;;;;;;0.50;0.30;;;19.00;58.90;;;;;;5032773;28;20291;-71
2023/09/25 11:46:53;;;;;;;0.55;0.55;;;19.00;58.90;;;;;;5033568;28;20072;-71
2023/09/25 11:49:19;;;;;;;;;;;19.00;59.10;;;;;;5033248;28;20037;-70
2023/09/25 11:51:45;;;;;;;0.10;0.10;;;19.00;59.00;;;;;;5032801;28;20289;-70
2023/09/25 11:54:11;;;;;;;;;;;19.00;58.90;;;;;;5034297;28;20397;-71
2023/09/25 11:56:38;;;;;;;0.88;0.43;;;19.00;58.80;;;;;;5031951;28;20423;-71
2023/09/25 11:59:04;;;;;;;0.55;0.40;;;19.10;58.90;;;;;;5032376;28;20433;-71
2023/09/25 12:01:30;;;;;;;;;;;19.10;58.30;;;;;;5031955;28;20038;-70
2023/09/25 12:03:57;;;;;;;0.63;0.30;;;19.10;58.80;;;;;;5032252;28;19967;-71
2023/09/25 12:06:26;;;;;;;0.47;0.20;;;19.20;58.60;;;;;;5033040;28;20108;-72
2023/09/25 12:08:54;;;;;;;0.65;0.30;;;19.30;58.60;;;;;;5016198;28;20087;-70
2023/09/25 12:11:21;;;;;;;0.20;0.20;;;19.30;58.80;;;;;;5031208;28;20046;-71
2023/09/25 12:13:46;;;;;;;;;;;19.40;58.10;;;;;;5034104;28;20045;-71
2023/09/25 12:16:13;;;;;;;1.33;0.82;;;19.40;58.40;;;;;;5031550;28;19924;-71
2023/09/25 12:18:39;;;;;;;0.22;0.22;;;19.50;58.90;;;;;;5033500;28;20042;-72
2023/09/25 12:21:07;;;;;;;0.80;0.50;;;19.60;58.10;;;;;;5032231;28;20175;-71
2023/09/25 12:23:34;;;;;;;0.38;0.32;;;19.70;58.10;;;;;;5033377;28;20037;-71
2023/09/25 12:26:00;;;;;;;0.38;0.30;;;19.70;57.90;;;;;;5032740;28;20436;-71
2023/09/25 12:28:26;;;;;;;;;;;19.80;57.80;;;;;;5033782;28;20046;-71
2023/09/25 12:30:52;;;;;;;0.93;0.47;;;19.80;57.90;;;;;;5030649;28;19964;-71
2023/09/25 12:33:20;;;;;;;0.25;0.25;;;19.80;57.80;;;;;;5032909;28;20045;-71
2023/09/25 12:35:46;;;;;;;0.20;0.20;;;19.80;57.90;;;;;;5031338;28;20501;-70
2023/09/25 12:38:12;;;;;;;;;;;19.70;58.00;;;;;;5015712;28;20121;-72
2023/09/25 12:40:38;;;;;;;0.30;0.30;;;19.70;58.10;;;;;;5014122;28;20320;-71
2023/09/25 12:43:04;;;;;;;0.85;0.30;;;19.70;58.20;;;;;;5032842;28;20463;-72
2023/09/25 12:45:30;;;;;;;0.55;0.20;;;19.60;57.50;;;;;;5032232;28;20080;-71
2023/09/25 12:47:57;;;;;;;0.30;0.30;;;19.70;58.10;;;;;;5032787;28;20116;-71
2023/09/25 12:50:23;;;;;;;;;;;19.60;58.10;;;;;;5030928;28;20052;-70
2023/09/25 12:52:49;;;;;;;0.40;0.30;;;19.70;58.10;;;;;;5032660;28;19925;-71
2023/09/25 12:55:15;;;;;;;1.08;0.55;;;19.70;58.30;;;;;;5014396;28;20029;-71
2023/09/25 12:57:41;;;;;;;;;;;19.70;58.40;;;;;;5031951;28;20033;-71
2023/09/25 13:00:08;;;;;;;0.68;0.45;;;19.60;57.50;;;;;;5030772;28;19916;-71
2023/09/25 13:02:34;;;;;;;0.52;0.40;;;19.60;57.90;;;;;;5032353;28;20025;-71
2023/09/25 13:05:01;;;;;;;0.82;0.70;;;19.60;57.90;;;;;;5031192;28;20052;-71
2023/09/25 13:07:27;;;;;;;;;;;19.60;57.50;;;;;;5031451;28;20606;-71
2023/09/25 13:09:53;;;;;;;1.20;1.05;;;19.60;57.90;;;;;;5031108;28;19917;-71